EIN850 EICK-LEBB
Flight info
| Callsign | EIN850 |
|---|---|
| Flight time | 1h 31m |
| Altitude | 23000 |
| Route | ERTER1S ERTER DCT LEDGO N160 EVCOR/N0453F350 DCT DOLUR DCT IDRIK DCT NENEM N867 MAPAX |
| Aircraft | A320/M-SDE3FGHIRWY/LB1 |
Departure
| Time | 2026-05-01 10:37 |
|---|---|
| Airport | Cork International Airport (EICK) |
Arrival
| Time | 2026-05-01 12:09 |
|---|---|
| Airport | Bilbao Airport (LEBB) |
| Time | Latitude | Longitude | Altitude | Speed | Heading |
|---|---|---|---|---|---|
| 2026-05-01 10:08 | 51.84636 | -8.49047 | 505 ft | 0 kts | 69° |
| 2026-05-01 10:29 | 51.84634 | -8.49054 | 504 ft | 2 kts | 69° |
| 2026-05-01 10:30 | 51.84619 | -8.49094 | 504 ft | 3 kts | 24° |
| 2026-05-01 10:30 | 51.84584 | -8.49095 | 504 ft | 1 kts | 338° |
| 2026-05-01 10:31 | 51.84579 | -8.49091 | 504 ft | 0 kts | 338° |
| 2026-05-01 10:33 | 51.84581 | -8.49093 | 504 ft | 2 kts | 338° |
| 2026-05-01 10:33 | 51.84689 | -8.49162 | 504 ft | 14 kts | 339° |
| 2026-05-01 10:34 | 51.84788 | -8.49211 | 504 ft | 14 kts | 346° |
| 2026-05-01 10:34 | 51.84879 | -8.49247 | 504 ft | 13 kts | 346° |
| 2026-05-01 10:34 | 51.84960 | -8.49278 | 504 ft | 11 kts | 346° |
| 2026-05-01 10:35 | 51.85085 | -8.49358 | 504 ft | 8 kts | 338° |
| 2026-05-01 10:35 | 51.85130 | -8.49400 | 504 ft | 7 kts | 314° |
| 2026-05-01 10:35 | 51.85134 | -8.49461 | 504 ft | 5 kts | 250° |
| 2026-05-01 10:35 | 51.85102 | -8.49506 | 504 ft | 8 kts | 205° |
| 2026-05-01 10:36 | 51.84960 | -8.49598 | 504 ft | 14 kts | 177° |
| 2026-05-01 10:36 | 51.84936 | -8.49586 | 504 ft | 0 kts | 158° |
| 2026-05-01 10:36 | 51.84815 | -8.49511 | 504 ft | 53 kts | 160° |
| 2026-05-01 10:37 | 51.84245 | -8.49182 | 505 ft | 117 kts | 160° |
| 2026-05-01 10:37 | 51.82517 | -8.48151 | 1581 ft | 130 kts | 160° |
| 2026-05-01 10:37 | 51.81647 | -8.47585 | 2108 ft | 144 kts | 160° |
| 2026-05-01 10:38 | 51.80666 | -8.46948 | 2404 ft | 159 kts | 161° |
| 2026-05-01 10:38 | 51.79596 | -8.46241 | 2751 ft | 174 kts | 154° |
| 2026-05-01 10:38 | 51.78601 | -8.44931 | 2992 ft | 200 kts | 132° |
| 2026-05-01 10:38 | 51.77678 | -8.43091 | 3279 ft | 221 kts | 135° |
| 2026-05-01 10:39 | 51.76579 | -8.41173 | 3619 ft | 245 kts | 137° |
| 2026-05-01 10:39 | 51.75333 | -8.39116 | 4149 ft | 261 kts | 137° |
| 2026-05-01 10:39 | 51.74057 | -8.37070 | 5172 ft | 258 kts | 137° |
| 2026-05-01 10:39 | 51.72830 | -8.34920 | 6028 ft | 263 kts | 135° |
| 2026-05-01 10:40 | 51.71618 | -8.32692 | 6847 ft | 266 kts | 134° |
| 2026-05-01 10:40 | 51.70402 | -8.30419 | 7640 ft | 269 kts | 135° |
| 2026-05-01 10:40 | 51.69137 | -8.28193 | 8467 ft | 270 kts | 137° |
| 2026-05-01 10:40 | 51.67829 | -8.26018 | 9321 ft | 271 kts | 139° |
| 2026-05-01 10:41 | 51.66501 | -8.23848 | 10174 ft | 271 kts | 138° |
| 2026-05-01 10:41 | 51.65174 | -8.21597 | 10584 ft | 289 kts | 137° |
| 2026-05-01 10:41 | 51.62202 | -8.16465 | 10967 ft | 333 kts | 137° |
| 2026-05-01 10:42 | 51.60633 | -8.13740 | 11512 ft | 340 kts | 137° |
| 2026-05-01 10:42 | 51.58998 | -8.10896 | 12199 ft | 343 kts | 137° |
| 2026-05-01 10:42 | 51.57392 | -8.08106 | 12868 ft | 346 kts | 137° |
| 2026-05-01 10:42 | 51.55743 | -8.05268 | 13545 ft | 349 kts | 138° |
| 2026-05-01 10:43 | 51.54007 | -8.02460 | 14211 ft | 350 kts | 140° |
| 2026-05-01 10:43 | 51.52543 | -8.00197 | 14689 ft | 353 kts | 141° |
| 2026-05-01 10:43 | 51.50756 | -7.97494 | 15271 ft | 355 kts | 141° |
| 2026-05-01 10:43 | 51.48951 | -7.94780 | 15859 ft | 358 kts | 141° |
| 2026-05-01 10:44 | 51.47130 | -7.92035 | 16472 ft | 360 kts | 141° |
| 2026-05-01 10:44 | 51.45307 | -7.89271 | 17086 ft | 362 kts | 141° |
| 2026-05-01 10:44 | 51.43480 | -7.86481 | 17714 ft | 364 kts | 141° |
| 2026-05-01 10:44 | 51.41641 | -7.83661 | 18290 ft | 367 kts | 141° |
| 2026-05-01 10:45 | 51.39798 | -7.80836 | 18822 ft | 369 kts | 141° |
| 2026-05-01 10:45 | 51.37936 | -7.77987 | 19326 ft | 372 kts | 141° |
| 2026-05-01 10:45 | 51.36064 | -7.75127 | 19831 ft | 374 kts | 141° |
| 2026-05-01 10:45 | 51.34176 | -7.72248 | 20322 ft | 376 kts | 141° |
| 2026-05-01 10:46 | 51.32291 | -7.69374 | 20739 ft | 374 kts | 141° |
| 2026-05-01 10:46 | 51.30387 | -7.66483 | 21098 ft | 379 kts | 141° |
| 2026-05-01 10:46 | 51.28469 | -7.63574 | 21492 ft | 382 kts | 141° |
| 2026-05-01 10:46 | 51.26562 | -7.60688 | 21916 ft | 385 kts | 141° |
| 2026-05-01 10:47 | 51.24611 | -7.57741 | 22346 ft | 387 kts | 141° |
| 2026-05-01 10:47 | 51.22648 | -7.54778 | 22768 ft | 389 kts | 141° |
| 2026-05-01 10:47 | 51.20675 | -7.51799 | 23168 ft | 391 kts | 141° |
| 2026-05-01 10:47 | 51.18691 | -7.48809 | 23559 ft | 394 kts | 141° |
| 2026-05-01 10:48 | 51.16693 | -7.45794 | 23906 ft | 397 kts | 141° |
| 2026-05-01 10:48 | 51.14693 | -7.42780 | 24263 ft | 399 kts | 141° |
| 2026-05-01 10:48 | 51.12666 | -7.39732 | 24640 ft | 401 kts | 141° |
| 2026-05-01 10:48 | 51.10634 | -7.36683 | 24995 ft | 400 kts | 141° |
| 2026-05-01 10:49 | 51.08601 | -7.33639 | 25273 ft | 402 kts | 141° |
| 2026-05-01 10:49 | 51.06558 | -7.30582 | 25568 ft | 404 kts | 141° |
| 2026-05-01 10:49 | 51.04509 | -7.27517 | 25858 ft | 405 kts | 141° |
| 2026-05-01 10:49 | 51.02455 | -7.24434 | 26148 ft | 407 kts | 141° |
| 2026-05-01 10:50 | 51.00393 | -7.21342 | 26449 ft | 408 kts | 141° |
| 2026-05-01 10:50 | 50.98324 | -7.18250 | 26732 ft | 409 kts | 141° |
| 2026-05-01 10:50 | 50.96241 | -7.15153 | 27013 ft | 411 kts | 141° |
| 2026-05-01 10:50 | 50.94145 | -7.12043 | 27312 ft | 414 kts | 141° |
| 2026-05-01 10:51 | 50.92041 | -7.08926 | 27610 ft | 415 kts | 141° |
| 2026-05-01 10:51 | 50.89927 | -7.05804 | 27855 ft | 416 kts | 141° |
| 2026-05-01 10:51 | 50.87809 | -7.02678 | 28038 ft | 417 kts | 141° |
| 2026-05-01 10:51 | 50.85674 | -6.99546 | 28238 ft | 419 kts | 141° |
| 2026-05-01 10:52 | 50.83528 | -6.96404 | 28451 ft | 421 kts | 141° |
| 2026-05-01 10:52 | 50.81378 | -6.93257 | 28672 ft | 422 kts | 141° |
| 2026-05-01 10:52 | 50.79228 | -6.90103 | 28962 ft | 421 kts | 141° |
| 2026-05-01 10:52 | 50.77085 | -6.86954 | 29277 ft | 420 kts | 141° |
| 2026-05-01 10:53 | 50.74947 | -6.83823 | 29591 ft | 419 kts | 141° |
| 2026-05-01 10:53 | 50.72815 | -6.80708 | 29907 ft | 417 kts | 141° |
| 2026-05-01 10:53 | 50.70687 | -6.77604 | 30213 ft | 416 kts | 141° |
| 2026-05-01 10:53 | 50.68558 | -6.74515 | 30490 ft | 415 kts | 142° |
| 2026-05-01 10:54 | 50.66465 | -6.71468 | 30745 ft | 415 kts | 141° |
| 2026-05-01 10:54 | 50.64345 | -6.68388 | 30997 ft | 414 kts | 141° |
| 2026-05-01 10:54 | 50.62232 | -6.65320 | 31257 ft | 413 kts | 141° |
| 2026-05-01 10:54 | 50.60120 | -6.62258 | 31508 ft | 412 kts | 141° |
| 2026-05-01 10:55 | 50.58013 | -6.59207 | 31766 ft | 411 kts | 141° |
| 2026-05-01 10:55 | 50.55912 | -6.56167 | 32040 ft | 410 kts | 141° |
| 2026-05-01 10:55 | 50.53813 | -6.53131 | 32309 ft | 409 kts | 141° |
| 2026-05-01 10:55 | 50.51720 | -6.50114 | 32539 ft | 408 kts | 141° |
| 2026-05-01 10:56 | 50.49619 | -6.47093 | 32696 ft | 410 kts | 141° |
| 2026-05-01 10:56 | 50.47512 | -6.44065 | 32883 ft | 411 kts | 141° |
| 2026-05-01 10:56 | 50.45400 | -6.41033 | 33102 ft | 411 kts | 141° |
| 2026-05-01 10:56 | 50.43288 | -6.38002 | 33347 ft | 411 kts | 141° |
| 2026-05-01 10:57 | 50.41181 | -6.34975 | 33600 ft | 410 kts | 141° |
| 2026-05-01 10:57 | 50.39074 | -6.31954 | 33859 ft | 410 kts | 141° |
| 2026-05-01 10:57 | 50.36968 | -6.28944 | 34129 ft | 409 kts | 141° |
| 2026-05-01 10:57 | 50.34865 | -6.25946 | 34365 ft | 409 kts | 141° |
| 2026-05-01 10:58 | 50.32764 | -6.22956 | 34567 ft | 409 kts | 141° |
| 2026-05-01 10:58 | 50.30658 | -6.19961 | 34761 ft | 409 kts | 141° |
| 2026-05-01 10:58 | 50.28549 | -6.16965 | 34946 ft | 409 kts | 141° |
| 2026-05-01 10:58 | 50.26441 | -6.13968 | 35120 ft | 410 kts | 141° |
| 2026-05-01 10:59 | 50.24358 | -6.11011 | 35268 ft | 411 kts | 141° |
| 2026-05-01 10:59 | 50.22211 | -6.07978 | 35436 ft | 411 kts | 141° |
| 2026-05-01 10:59 | 50.20088 | -6.04982 | 35597 ft | 412 kts | 141° |
| 2026-05-01 10:59 | 50.17965 | -6.01982 | 35753 ft | 412 kts | 141° |
| 2026-05-01 11:00 | 50.15871 | -5.99020 | 35904 ft | 412 kts | 141° |
| 2026-05-01 11:00 | 50.13747 | -5.96020 | 36059 ft | 412 kts | 141° |
| 2026-05-01 11:00 | 50.11618 | -5.93019 | 36163 ft | 413 kts | 141° |
| 2026-05-01 11:01 | 50.07333 | -5.87000 | 36196 ft | 416 kts | 141° |
| 2026-05-01 11:01 | 50.03024 | -5.80961 | 36191 ft | 418 kts | 141° |
| 2026-05-01 11:02 | 49.98706 | -5.74920 | 36193 ft | 417 kts | 141° |
| 2026-05-01 11:02 | 49.94389 | -5.68894 | 36194 ft | 418 kts | 141° |
| 2026-05-01 11:03 | 49.90060 | -5.62872 | 36198 ft | 418 kts | 142° |
| 2026-05-01 11:03 | 49.85722 | -5.56850 | 36202 ft | 418 kts | 142° |
| 2026-05-01 11:04 | 49.81379 | -5.50842 | 36197 ft | 419 kts | 142° |
| 2026-05-01 11:04 | 49.77030 | -5.44843 | 36197 ft | 419 kts | 141° |
| 2026-05-01 11:05 | 49.72679 | -5.38836 | 36176 ft | 420 kts | 141° |
| 2026-05-01 11:05 | 49.68316 | -5.32837 | 36185 ft | 420 kts | 142° |
| 2026-05-01 11:06 | 49.63942 | -5.26843 | 36199 ft | 421 kts | 142° |
| 2026-05-01 11:06 | 49.59563 | -5.20854 | 36212 ft | 421 kts | 142° |
| 2026-05-01 11:07 | 49.52974 | -5.11877 | 36220 ft | 422 kts | 142° |
| 2026-05-01 11:07 | 49.48529 | -5.06091 | 36224 ft | 419 kts | 149° |
| 2026-05-01 11:08 | 49.43448 | -5.01821 | 36226 ft | 416 kts | 155° |
| 2026-05-01 11:09 | 49.35690 | -4.95773 | 36227 ft | 418 kts | 155° |
| 2026-05-01 11:09 | 49.30508 | -4.91735 | 36231 ft | 418 kts | 155° |
| 2026-05-01 11:10 | 49.22733 | -4.85691 | 36238 ft | 418 kts | 155° |
| 2026-05-01 11:10 | 49.17544 | -4.81682 | 36232 ft | 418 kts | 156° |
| 2026-05-01 11:11 | 49.12346 | -4.77675 | 36237 ft | 418 kts | 155° |
| 2026-05-01 11:11 | 49.07154 | -4.73669 | 36236 ft | 418 kts | 156° |
| 2026-05-01 11:12 | 49.01948 | -4.69682 | 36234 ft | 419 kts | 156° |
| 2026-05-01 11:12 | 48.96732 | -4.65701 | 36242 ft | 420 kts | 156° |
| 2026-05-01 11:13 | 48.91518 | -4.61711 | 36234 ft | 420 kts | 156° |
| 2026-05-01 11:13 | 48.86340 | -4.57749 | 36232 ft | 419 kts | 156° |
| 2026-05-01 11:14 | 48.81125 | -4.53778 | 36225 ft | 419 kts | 156° |
| 2026-05-01 11:14 | 48.75902 | -4.49822 | 36226 ft | 420 kts | 156° |
| 2026-05-01 11:15 | 48.70671 | -4.45866 | 36225 ft | 421 kts | 156° |
| 2026-05-01 11:15 | 48.65431 | -4.41903 | 36231 ft | 421 kts | 156° |
| 2026-05-01 11:16 | 48.60202 | -4.37953 | 36223 ft | 420 kts | 156° |
| 2026-05-01 11:16 | 48.54968 | -4.34017 | 36209 ft | 421 kts | 156° |
| 2026-05-01 11:17 | 48.49715 | -4.30082 | 36191 ft | 422 kts | 156° |
| 2026-05-01 11:17 | 48.45335 | -4.26803 | 36195 ft | 423 kts | 156° |
| 2026-05-01 11:18 | 48.40055 | -4.22857 | 36210 ft | 425 kts | 156° |
| 2026-05-01 11:18 | 48.34761 | -4.18906 | 36197 ft | 425 kts | 156° |
| 2026-05-01 11:19 | 48.29459 | -4.14964 | 36199 ft | 426 kts | 156° |
| 2026-05-01 11:19 | 48.23289 | -4.10403 | 36208 ft | 426 kts | 156° |
| 2026-05-01 11:20 | 48.18831 | -4.07106 | 36204 ft | 426 kts | 156° |
| 2026-05-01 11:20 | 48.13512 | -4.03172 | 36204 ft | 427 kts | 156° |
| 2026-05-01 11:21 | 48.08212 | -3.99262 | 36202 ft | 429 kts | 156° |
| 2026-05-01 11:21 | 48.02859 | -3.95331 | 36218 ft | 429 kts | 157° |
| 2026-05-01 11:22 | 47.97501 | -3.91413 | 36221 ft | 429 kts | 157° |
| 2026-05-01 11:22 | 47.92144 | -3.87488 | 36202 ft | 430 kts | 157° |
| 2026-05-01 11:23 | 47.86773 | -3.83561 | 36200 ft | 430 kts | 157° |
| 2026-05-01 11:23 | 47.81393 | -3.79651 | 36212 ft | 430 kts | 157° |
| 2026-05-01 11:24 | 47.76003 | -3.75740 | 36193 ft | 431 kts | 157° |
| 2026-05-01 11:25 | 47.67911 | -3.69881 | 36200 ft | 432 kts | 157° |
| 2026-05-01 11:25 | 47.59709 | -3.64492 | 36201 ft | 429 kts | 168° |
| 2026-05-01 11:26 | 47.50880 | -3.62796 | 36199 ft | 427 kts | 176° |
| 2026-05-01 11:27 | 47.44956 | -3.61931 | 36206 ft | 428 kts | 176° |
| 2026-05-01 11:27 | 47.39015 | -3.61062 | 36216 ft | 429 kts | 176° |
| 2026-05-01 11:28 | 47.33062 | -3.60179 | 36221 ft | 430 kts | 176° |
| 2026-05-01 11:28 | 47.27096 | -3.59299 | 36213 ft | 432 kts | 177° |
| 2026-05-01 11:29 | 47.18115 | -3.58005 | 36230 ft | 433 kts | 177° |
| 2026-05-01 11:30 | 47.09115 | -3.56707 | 36229 ft | 434 kts | 177° |
| 2026-05-01 11:30 | 47.03106 | -3.55835 | 36238 ft | 434 kts | 177° |
| 2026-05-01 11:31 | 46.97129 | -3.54968 | 36244 ft | 434 kts | 177° |
| 2026-05-01 11:31 | 46.91107 | -3.54091 | 36229 ft | 435 kts | 177° |
| 2026-05-01 11:32 | 46.85077 | -3.53222 | 36232 ft | 436 kts | 177° |
| 2026-05-01 11:32 | 46.79030 | -3.52365 | 36231 ft | 437 kts | 177° |
| 2026-05-01 11:33 | 46.72969 | -3.51506 | 36230 ft | 438 kts | 177° |
| 2026-05-01 11:33 | 46.66910 | -3.50651 | 36241 ft | 437 kts | 177° |
| 2026-05-01 11:34 | 46.60850 | -3.49795 | 36238 ft | 438 kts | 177° |
| 2026-05-01 11:34 | 46.54782 | -3.48923 | 36237 ft | 438 kts | 177° |
| 2026-05-01 11:35 | 46.48715 | -3.48054 | 36237 ft | 438 kts | 177° |
| 2026-05-01 11:35 | 46.42644 | -3.47199 | 36231 ft | 439 kts | 177° |
| 2026-05-01 11:36 | 46.36567 | -3.46342 | 36231 ft | 439 kts | 177° |
| 2026-05-01 11:36 | 46.30524 | -3.45486 | 36221 ft | 439 kts | 177° |
| 2026-05-01 11:37 | 46.24440 | -3.44637 | 36223 ft | 440 kts | 177° |
| 2026-05-01 11:37 | 46.18345 | -3.43779 | 36225 ft | 441 kts | 177° |
| 2026-05-01 11:38 | 46.12238 | -3.42919 | 36223 ft | 441 kts | 177° |
| 2026-05-01 11:38 | 46.06123 | -3.42077 | 36219 ft | 442 kts | 177° |
| 2026-05-01 11:39 | 45.99992 | -3.41221 | 36217 ft | 443 kts | 177° |
| 2026-05-01 11:39 | 45.93856 | -3.40355 | 36225 ft | 443 kts | 177° |
| 2026-05-01 11:40 | 45.87751 | -3.39520 | 36221 ft | 444 kts | 177° |
| 2026-05-01 11:40 | 45.81602 | -3.38685 | 36230 ft | 444 kts | 177° |
| 2026-05-01 11:41 | 45.75444 | -3.37822 | 36219 ft | 444 kts | 177° |
| 2026-05-01 11:41 | 45.69287 | -3.36961 | 36214 ft | 445 kts | 177° |
| 2026-05-01 11:42 | 45.63125 | -3.36114 | 36223 ft | 445 kts | 177° |
| 2026-05-01 11:42 | 45.56954 | -3.35276 | 36228 ft | 445 kts | 177° |
| 2026-05-01 11:43 | 45.50783 | -3.34431 | 36215 ft | 446 kts | 177° |
| 2026-05-01 11:43 | 45.44604 | -3.33592 | 36210 ft | 446 kts | 177° |
| 2026-05-01 11:44 | 45.35339 | -3.32340 | 36221 ft | 446 kts | 177° |
| 2026-05-01 11:44 | 45.29158 | -3.31494 | 36211 ft | 447 kts | 177° |
| 2026-05-01 11:45 | 45.23012 | -3.30656 | 36212 ft | 447 kts | 177° |
| 2026-05-01 11:45 | 45.16815 | -3.29817 | 36210 ft | 448 kts | 177° |
| 2026-05-01 11:46 | 45.10604 | -3.28972 | 36206 ft | 448 kts | 177° |
| 2026-05-01 11:46 | 45.04391 | -3.28144 | 36212 ft | 449 kts | 177° |
| 2026-05-01 11:47 | 44.98158 | -3.27312 | 35909 ft | 449 kts | 177° |
| 2026-05-01 11:47 | 44.95047 | -3.26894 | 35653 ft | 450 kts | 177° |
| 2026-05-01 11:47 | 44.91934 | -3.26475 | 35399 ft | 450 kts | 177° |
| 2026-05-01 11:48 | 44.88810 | -3.26059 | 35154 ft | 451 kts | 177° |
| 2026-05-01 11:48 | 44.85685 | -3.25642 | 34911 ft | 451 kts | 177° |
| 2026-05-01 11:48 | 44.82558 | -3.25221 | 34669 ft | 452 kts | 177° |
| 2026-05-01 11:48 | 44.79419 | -3.24799 | 34432 ft | 453 kts | 177° |
| 2026-05-01 11:49 | 44.76279 | -3.24380 | 34177 ft | 454 kts | 177° |
| 2026-05-01 11:49 | 44.73125 | -3.23957 | 33162 ft | 458 kts | 176° |
| 2026-05-01 11:49 | 44.69957 | -3.23536 | 32243 ft | 458 kts | 176° |
| 2026-05-01 11:49 | 44.66779 | -3.23116 | 31263 ft | 459 kts | 176° |
| 2026-05-01 11:50 | 44.63593 | -3.22693 | 30238 ft | 461 kts | 176° |
| 2026-05-01 11:50 | 44.60395 | -3.22271 | 29068 ft | 462 kts | 176° |
| 2026-05-01 11:50 | 44.57199 | -3.21850 | 27974 ft | 461 kts | 176° |
| 2026-05-01 11:50 | 44.54052 | -3.21432 | 26874 ft | 461 kts | 176° |
| 2026-05-01 11:51 | 44.50912 | -3.21014 | 26203 ft | 442 kts | 176° |
| 2026-05-01 11:51 | 44.47898 | -3.20617 | 25499 ft | 432 kts | 176° |
| 2026-05-01 11:51 | 44.44914 | -3.20226 | 24785 ft | 430 kts | 176° |
| 2026-05-01 11:51 | 44.41945 | -3.19838 | 24081 ft | 427 kts | 176° |
| 2026-05-01 11:52 | 44.38990 | -3.19453 | 23333 ft | 425 kts | 176° |
| 2026-05-01 11:52 | 44.36066 | -3.19068 | 22663 ft | 419 kts | 175° |
| 2026-05-01 11:52 | 44.33179 | -3.18686 | 22033 ft | 414 kts | 175° |
| 2026-05-01 11:52 | 44.30322 | -3.18309 | 21421 ft | 410 kts | 176° |
| 2026-05-01 11:53 | 44.27491 | -3.17937 | 20816 ft | 406 kts | 176° |
| 2026-05-01 11:53 | 44.24691 | -3.17572 | 20231 ft | 403 kts | 175° |
| 2026-05-01 11:53 | 44.21910 | -3.17209 | 19663 ft | 400 kts | 175° |
| 2026-05-01 11:53 | 44.19151 | -3.16848 | 19106 ft | 396 kts | 175° |
| 2026-05-01 11:54 | 44.16420 | -3.16491 | 18579 ft | 393 kts | 176° |
| 2026-05-01 11:54 | 44.13707 | -3.16136 | 18014 ft | 390 kts | 175° |
| 2026-05-01 11:54 | 44.11028 | -3.15786 | 17524 ft | 385 kts | 176° |
| 2026-05-01 11:54 | 44.08379 | -3.15441 | 17030 ft | 380 kts | 176° |
| 2026-05-01 11:55 | 44.05760 | -3.15097 | 16537 ft | 376 kts | 175° |
| 2026-05-01 11:55 | 44.03195 | -3.14463 | 16050 ft | 373 kts | 169° |
| 2026-05-01 11:55 | 44.00664 | -3.13725 | 15534 ft | 370 kts | 169° |
| 2026-05-01 11:55 | 43.98154 | -3.12996 | 15042 ft | 367 kts | 169° |
| 2026-05-01 11:56 | 43.95666 | -3.12276 | 14519 ft | 365 kts | 169° |
| 2026-05-01 11:56 | 43.93189 | -3.11557 | 13990 ft | 363 kts | 169° |
| 2026-05-01 11:56 | 43.90724 | -3.10840 | 13394 ft | 361 kts | 169° |
| 2026-05-01 11:56 | 43.88308 | -3.10141 | 12851 ft | 357 kts | 169° |
| 2026-05-01 11:57 | 43.85851 | -3.09433 | 12264 ft | 355 kts | 169° |
| 2026-05-01 11:57 | 43.84259 | -3.08976 | 11896 ft | 353 kts | 169° |
| 2026-05-01 11:57 | 43.81056 | -3.08056 | 11114 ft | 349 kts | 169° |
| 2026-05-01 11:57 | 43.78711 | -3.07380 | 10859 ft | 337 kts | 169° |
| 2026-05-01 11:58 | 43.76464 | -3.06731 | 10732 ft | 322 kts | 169° |
| 2026-05-01 11:58 | 43.74348 | -3.06116 | 10613 ft | 308 kts | 169° |
| 2026-05-01 11:58 | 43.70379 | -3.04972 | 10096 ft | 280 kts | 169° |
| 2026-05-01 11:59 | 43.68499 | -3.04433 | 9950 ft | 271 kts | 169° |
| 2026-05-01 11:59 | 43.66641 | -3.03883 | 9886 ft | 273 kts | 168° |
| 2026-05-01 11:59 | 43.64788 | -3.03307 | 9771 ft | 273 kts | 168° |
| 2026-05-01 12:00 | 43.61087 | -3.02137 | 9440 ft | 273 kts | 168° |
| 2026-05-01 12:00 | 43.59245 | -3.01552 | 9113 ft | 271 kts | 167° |
| 2026-05-01 12:00 | 43.55646 | -3.01957 | 8277 ft | 270 kts | 217° |
| 2026-05-01 12:01 | 43.54534 | -3.04005 | 7932 ft | 270 kts | 244° |
| 2026-05-01 12:01 | 43.53874 | -3.06428 | 7560 ft | 269 kts | 249° |
| 2026-05-01 12:01 | 43.53227 | -3.08839 | 7190 ft | 267 kts | 245° |
| 2026-05-01 12:01 | 43.52415 | -3.11117 | 6822 ft | 263 kts | 237° |
| 2026-05-01 12:02 | 43.51426 | -3.13224 | 6450 ft | 261 kts | 231° |
| 2026-05-01 12:02 | 43.50319 | -3.15180 | 6090 ft | 256 kts | 227° |
| 2026-05-01 12:02 | 43.49137 | -3.16982 | 5751 ft | 250 kts | 223° |
| 2026-05-01 12:02 | 43.47917 | -3.18591 | 5391 ft | 237 kts | 220° |
| 2026-05-01 12:03 | 43.46679 | -3.20002 | 5078 ft | 228 kts | 211° |
| 2026-05-01 12:03 | 43.45271 | -3.20887 | 4772 ft | 224 kts | 193° |
| 2026-05-01 12:03 | 43.43748 | -3.21109 | 4461 ft | 220 kts | 176° |
| 2026-05-01 12:03 | 43.42250 | -3.20666 | 4053 ft | 223 kts | 158° |
| 2026-05-01 12:04 | 43.40916 | -3.19567 | 3648 ft | 225 kts | 140° |
| 2026-05-01 12:04 | 43.39922 | -3.17937 | 3486 ft | 219 kts | 123° |
| 2026-05-01 12:04 | 43.39253 | -3.16135 | 3494 ft | 204 kts | 119° |
| 2026-05-01 12:04 | 43.38636 | -3.14437 | 3493 ft | 196 kts | 118° |
| 2026-05-01 12:05 | 43.38025 | -3.12755 | 3389 ft | 195 kts | 120° |
| 2026-05-01 12:05 | 43.36850 | -3.09524 | 2899 ft | 184 kts | 117° |
| 2026-05-01 12:05 | 43.36299 | -3.08010 | 2665 ft | 171 kts | 118° |
| 2026-05-01 12:06 | 43.35786 | -3.06600 | 2427 ft | 160 kts | 117° |
| 2026-05-01 12:06 | 43.35301 | -3.05274 | 2227 ft | 152 kts | 115° |
| 2026-05-01 12:06 | 43.34837 | -3.04002 | 2031 ft | 148 kts | 119° |
| 2026-05-01 12:06 | 43.34376 | -3.02737 | 1825 ft | 148 kts | 118° |
| 2026-05-01 12:07 | 43.33914 | -3.01468 | 1623 ft | 150 kts | 116° |
| 2026-05-01 12:07 | 43.33445 | -3.00185 | 1414 ft | 150 kts | 115° |
| 2026-05-01 12:07 | 43.32974 | -2.98898 | 1208 ft | 152 kts | 114° |
| 2026-05-01 12:07 | 43.32500 | -2.97599 | 997 ft | 151 kts | 112° |
| 2026-05-01 12:08 | 43.32021 | -2.96290 | 827 ft | 155 kts | 115° |
| 2026-05-01 12:08 | 43.31551 | -2.94973 | 516 ft | 152 kts | 115° |
| 2026-05-01 12:08 | 43.31081 | -2.93695 | 330 ft | 150 kts | 116° |
| 2026-05-01 12:08 | 43.30614 | -2.92429 | 170 ft | 148 kts | 117° |
| 2026-05-01 12:09 | 43.30189 | -2.91271 | 127 ft | 115 kts | 118° |
| 2026-05-01 12:09 | 43.29961 | -2.90657 | 124 ft | 36 kts | 114° |
| 2026-05-01 12:09 | 43.29931 | -2.90342 | 128 ft | 22 kts | 88° |
| 2026-05-01 12:09 | 43.29949 | -2.90233 | 124 ft | 9 kts | 51° |
| 2026-05-01 12:10 | 43.29994 | -2.90242 | 130 ft | 7 kts | 304° |
| 2026-05-01 12:10 | 43.30048 | -2.90397 | 126 ft | 18 kts | 298° |
| 2026-05-01 12:10 | 43.30099 | -2.90532 | 124 ft | 11 kts | 298° |
| 2026-05-01 12:11 | 43.30218 | -2.90527 | 126 ft | 9 kts | 26° |
| 2026-05-01 12:11 | 43.30254 | -2.90532 | 127 ft | 7 kts | 338° |
| 2026-05-01 12:11 | 43.30295 | -2.90563 | 127 ft | 6 kts | 354° |
| 2026-05-01 12:12 | 43.30341 | -2.90544 | 126 ft | 5 kts | 24° |
| 2026-05-01 12:12 | 43.30358 | -2.90532 | 126 ft | 4 kts | 25° |
| 2026-05-01 12:12 | 43.30380 | -2.90518 | 123 ft | 3 kts | 27° |
| 2026-05-01 12:12 | 43.30385 | -2.90514 | 127 ft | 0 kts | 26° |